createdAt,value
2022-08-07T00:01:44.185Z,14.71
2022-08-07T00:04:28.330Z,14.69
2022-08-07T00:07:09.399Z,14.65
2022-08-07T00:10:04.737Z,14.61
2022-08-07T00:13:52.328Z,14.55
2022-08-07T00:16:31.738Z,14.51
2022-08-07T00:19:21.653Z,14.47
2022-08-07T00:22:03.278Z,14.42
2022-08-07T00:24:44.427Z,14.39
2022-08-07T00:27:22.621Z,14.36
2022-08-07T00:29:57.307Z,14.32
2022-08-07T00:32:32.463Z,14.28
2022-08-07T00:35:29.730Z,14.25
2022-08-07T00:38:31.563Z,14.22
2022-08-07T00:41:10.104Z,14.19
2022-08-07T00:44:02.061Z,14.17
2022-08-07T00:46:44.888Z,14.13
2022-08-07T00:50:20.271Z,14.09
2022-08-07T00:52:28.078Z,14.06
2022-08-07T00:55:00.094Z,14.03
2022-08-07T00:57:59.918Z,13.99
2022-08-07T01:00:31.666Z,13.97
2022-08-07T01:03:14.626Z,13.94
2022-08-07T01:05:54.492Z,13.90
2022-08-07T01:08:38.562Z,13.87
2022-08-07T01:12:04.551Z,13.84
2022-08-07T01:14:10.403Z,13.81
2022-08-07T01:16:52.441Z,13.78
2022-08-07T01:19:53.899Z,13.77
2022-08-07T01:23:00.830Z,13.75
2022-08-07T01:26:01.243Z,13.71
2022-08-07T01:28:34.321Z,13.68
2022-08-07T01:31:41.602Z,13.66
2022-08-07T01:34:15.161Z,13.64
2022-08-07T01:36:58.099Z,13.63
2022-08-07T01:39:40.666Z,13.61
2022-08-07T01:42:57.602Z,13.59
2022-08-07T01:45:54.533Z,13.58
2022-08-07T01:48:32.956Z,13.56
2022-08-07T01:52:03.853Z,13.54
2022-08-07T01:54:36.504Z,13.52
2022-08-07T01:57:29.788Z,13.49
2022-08-07T02:00:14.576Z,13.46
2022-08-07T02:03:12.172Z,13.44
2022-08-07T02:06:01.049Z,13.42
2022-08-07T02:08:42.443Z,13.38
2022-08-07T02:12:03.055Z,13.37
2022-08-07T02:14:45.255Z,13.35
2022-08-07T02:17:31.717Z,13.33
2022-08-07T02:20:17.415Z,13.33
2022-08-07T02:23:23.864Z,13.31
2022-08-07T02:26:31.380Z,13.28
2022-08-07T02:29:02.314Z,13.25
2022-08-07T02:31:40.618Z,13.23
2022-08-07T02:34:17.947Z,13.20
2022-08-07T02:37:08.129Z,13.18
2022-08-07T02:40:30.034Z,13.13
2022-08-07T02:43:39.502Z,13.11
2022-08-07T02:46:18.409Z,13.09
2022-08-07T02:49:00.077Z,13.06
2022-08-07T02:51:52.010Z,13.04
2022-08-07T02:54:27.935Z,13.03
2022-08-07T02:57:30.904Z,13.00
2022-08-07T03:00:39.232Z,12.98
2022-08-07T03:03:50.980Z,12.94
2022-08-07T03:06:44.817Z,12.91
2022-08-07T03:09:52.590Z,12.87
2022-08-07T03:12:36.114Z,12.86
2022-08-07T03:15:47.798Z,12.83
2022-08-07T03:18:36.090Z,12.80
2022-08-07T03:26:09.257Z,12.75
2022-08-07T03:30:12.820Z,12.73
2022-08-07T03:33:40.123Z,12.69
2022-08-07T03:45:43.503Z,12.60
2022-08-07T03:49:02.231Z,12.58
2022-08-07T03:51:55.228Z,12.56
2022-08-07T03:54:54.414Z,12.55
2022-08-07T03:58:33.924Z,12.54
2022-08-07T04:00:36.345Z,12.53
2022-08-07T04:03:11.597Z,12.51
2022-08-07T04:05:46.118Z,12.50
2022-08-07T04:08:31.762Z,12.51
2022-08-07T04:12:25.747Z,12.50
2022-08-07T04:14:11.008Z,12.48
2022-08-07T04:17:21.585Z,12.46
2022-08-07T04:20:19.808Z,12.43
2022-08-07T04:23:07.938Z,12.43
2022-08-07T04:25:55.246Z,12.43
2022-08-07T04:28:28.367Z,12.41
2022-08-07T04:31:10.403Z,12.41
2022-08-07T04:33:56.662Z,12.40
2022-08-07T04:36:43.777Z,12.38
2022-08-07T04:39:49.787Z,12.38
2022-08-07T04:42:34.759Z,12.36
2022-08-07T04:45:11.734Z,12.36
2022-08-07T04:48:11.073Z,12.36
2022-08-07T04:51:18.372Z,12.34
2022-08-07T04:54:05.240Z,12.33
2022-08-07T04:58:12.043Z,12.32
2022-08-07T05:00:14.549Z,12.30
2022-08-07T05:03:00.577Z,12.30
2022-08-07T05:05:53.799Z,12.32
2022-08-07T05:08:59.546Z,12.33
2022-08-07T05:11:57.144Z,12.34
2022-08-07T05:14:58.180Z,12.36
2022-08-07T05:18:01.592Z,12.38
2022-08-07T05:21:00.718Z,12.41
2022-08-07T05:23:39.909Z,12.42
2022-08-07T05:26:23.946Z,12.44
2022-08-07T05:29:05.400Z,12.45
2022-08-07T05:31:53.935Z,12.48
2022-08-07T05:34:41.902Z,12.50
2022-08-07T05:37:47.105Z,12.55
2022-08-07T05:40:54.893Z,12.58
2022-08-07T05:44:07.969Z,12.61
2022-08-07T05:46:52.324Z,12.65
2022-08-07T05:49:40.935Z,12.69
2022-08-07T05:52:32.381Z,12.73
2022-08-07T05:56:03.145Z,12.80
2022-08-07T05:59:10.076Z,12.87
2022-08-07T06:01:50.626Z,12.94
2022-08-07T06:04:30.481Z,13.01
2022-08-07T06:07:23.031Z,13.09
2022-08-07T06:10:11.195Z,13.16
2022-08-07T06:13:16.251Z,13.24
2022-08-07T06:16:10.350Z,13.31
2022-08-07T06:18:57.111Z,13.38
2022-08-07T06:22:15.936Z,13.46
2022-08-07T06:24:53.199Z,13.55
2022-08-07T06:28:00.115Z,13.61
2022-08-07T06:30:50.679Z,13.71
2022-08-07T06:33:40.158Z,13.79
2022-08-07T06:36:34.920Z,13.86
2022-08-07T06:40:12.843Z,13.94
2022-08-07T06:42:39.568Z,14.02
2022-08-07T06:45:24.632Z,14.10
2022-08-07T06:48:02.453Z,14.17
2022-08-07T06:50:54.706Z,14.23
2022-08-07T06:55:29.493Z,14.29
2022-08-07T06:57:14.439Z,14.37
2022-08-07T07:00:18.021Z,14.44
2022-08-07T07:03:00.999Z,14.51
2022-08-07T07:06:03.981Z,14.59
2022-08-07T07:08:46.685Z,14.67
2022-08-07T07:12:08.691Z,14.76
2022-08-07T07:14:26.050Z,14.86
2022-08-07T07:17:39.162Z,14.97
2022-08-07T07:20:39.341Z,15.05
2022-08-07T07:24:08.642Z,15.12
2022-08-07T07:31:02.555Z,15.34
2022-08-07T07:33:37.546Z,15.41
2022-08-07T07:36:20.543Z,15.51
2022-08-07T07:38:58.446Z,15.62
2022-08-07T07:41:50.365Z,15.76
2022-08-07T07:44:50.304Z,16.09
2022-08-07T07:47:24.037Z,16.53
2022-08-07T07:50:34.081Z,17.07
2022-08-07T07:52:51.490Z,17.64
2022-08-07T07:55:27.566Z,18.07
2022-08-07T07:58:09.506Z,18.47
2022-08-07T08:00:53.565Z,18.91
2022-08-07T08:04:09.642Z,19.43
2022-08-07T08:06:29.280Z,20.06
2022-08-07T08:09:07.999Z,20.65
2022-08-07T08:11:59.951Z,21.21
2022-08-07T08:14:36.083Z,21.73
2022-08-07T08:17:57.607Z,22.09
2022-08-07T08:20:17.219Z,22.29
2022-08-07T08:23:14.428Z,22.75
2022-08-07T08:26:07.255Z,23.35
2022-08-07T08:28:44.782Z,23.86
2022-08-07T08:31:29.845Z,24.30
2022-08-07T08:34:04.542Z,24.82
2022-08-07T08:36:46.147Z,25.33
2022-08-07T08:39:18.022Z,25.75
2022-08-07T08:41:58.483Z,26.02
2022-08-07T08:44:44.491Z,26.30
2022-08-07T08:47:25.032Z,26.97
2022-08-07T08:50:06.092Z,27.41
2022-08-07T08:52:54.265Z,27.82
2022-08-07T08:55:55.580Z,28.35
2022-08-07T08:58:34.102Z,28.62
2022-08-07T09:01:15.101Z,28.17
2022-08-07T09:04:00.572Z,27.98
2022-08-07T09:06:42.671Z,28.36
2022-08-07T09:09:41.032Z,28.10
2022-08-07T09:12:31.736Z,27.81
2022-08-07T09:16:25.297Z,27.09
2022-08-07T09:18:36.758Z,26.31
2022-08-07T09:21:58.232Z,26.63
2022-08-07T09:24:58.530Z,26.14
2022-08-07T09:27:30.761Z,27.61
2022-08-07T09:30:08.815Z,28.61
2022-08-07T09:32:59.040Z,28.00
2022-08-07T09:36:03.839Z,26.80
2022-08-07T09:38:49.881Z,25.80
2022-08-07T09:41:43.167Z,25.79
2022-08-07T09:47:25.192Z,26.15
2022-08-07T09:47:58.963Z,27.63
2022-08-07T09:50:47.748Z,27.87
2022-08-07T09:53:26.116Z,27.38
2022-08-07T09:56:41.992Z,28.46
2022-08-07T09:59:46.188Z,29.03
2022-08-07T10:03:08.074Z,28.99
2022-08-07T10:06:17.335Z,30.68
2022-08-07T10:09:13.295Z,32.00
2022-08-07T10:12:15.464Z,32.89
2022-08-07T10:15:08.793Z,33.56
2022-08-07T10:18:10.035Z,34.61
2022-08-07T10:20:55.837Z,35.34
2022-08-07T10:24:05.693Z,35.98
2022-08-07T10:26:58.128Z,35.89
2022-08-07T10:30:01.886Z,35.09
2022-08-07T10:33:07.081Z,34.35
2022-08-07T10:36:17.185Z,33.92
2022-08-07T10:38:59.984Z,33.26
2022-08-07T10:41:52.310Z,33.57
2022-08-07T10:44:38.519Z,33.82
2022-08-07T10:47:51.408Z,32.97
2022-08-07T10:50:29.006Z,32.12
2022-08-07T10:53:12.775Z,32.32
2022-08-07T10:56:02.379Z,32.21
2022-08-07T10:58:59.705Z,32.79
2022-08-07T11:02:05.272Z,34.53
2022-08-07T11:05:10.521Z,36.10
2022-08-07T11:08:11.868Z,35.79
2022-08-07T11:10:59.772Z,35.23
2022-08-07T11:14:44.469Z,35.12
2022-08-07T11:17:07.372Z,33.90
2022-08-07T11:19:47.008Z,32.95
2022-08-07T11:22:37.215Z,32.48
2022-08-07T11:25:24.723Z,31.26
2022-08-07T11:28:04.492Z,32.19
2022-08-07T11:30:46.842Z,32.04
2022-08-07T11:33:53.994Z,33.07
2022-08-07T11:36:45.304Z,32.20
2022-08-07T11:39:56.832Z,31.08
2022-08-07T11:42:31.607Z,31.61
2022-08-07T11:45:20.556Z,32.26
2022-08-07T11:48:34.195Z,32.99
2022-08-07T11:51:44.945Z,34.77
2022-08-07T11:54:33.118Z,36.42
2022-08-07T11:57:18.991Z,35.41
2022-08-07T12:00:11.996Z,33.51
2022-08-07T12:03:41.566Z,33.34
2022-08-07T12:06:50.744Z,35.13
2022-08-07T12:09:35.563Z,36.17
2022-08-07T12:12:13.987Z,37.34
2022-08-07T12:14:56.405Z,37.65
2022-08-07T12:17:59.661Z,37.20
2022-08-07T12:20:46.460Z,38.40
2022-08-07T12:24:05.893Z,39.21
2022-08-07T12:26:40.750Z,36.80
2022-08-07T12:29:38.618Z,35.02
2022-08-07T12:32:16.891Z,33.90
2022-08-07T12:34:56.711Z,33.65
2022-08-07T12:38:11.610Z,32.82
2022-08-07T12:40:46.606Z,31.66
2022-08-07T12:44:03.749Z,30.84
2022-08-07T12:46:37.301Z,29.87
2022-08-07T12:49:39.589Z,29.72
2022-08-07T12:52:29.245Z,32.45
2022-08-07T12:55:18.189Z,34.67
2022-08-07T12:58:00.820Z,36.14
2022-08-07T13:00:50.156Z,37.10
2022-08-07T13:04:03.203Z,36.55
2022-08-07T13:07:01.924Z,37.62
2022-08-07T13:10:20.869Z,38.44
2022-08-07T13:13:08.265Z,38.07
2022-08-07T13:15:58.780Z,35.80
2022-08-07T13:18:44.769Z,35.61
2022-08-07T13:21:51.164Z,36.80
2022-08-07T13:24:33.305Z,37.25
2022-08-07T13:27:13.050Z,37.60
2022-08-07T13:29:58.082Z,38.22
2022-08-07T13:32:41.235Z,38.78
2022-08-07T13:35:22.269Z,38.90
2022-08-07T13:38:01.208Z,38.87
2022-08-07T13:40:42.361Z,38.87
2022-08-07T13:43:21.719Z,38.42
2022-08-07T13:46:12.489Z,38.06
2022-08-07T13:48:58.606Z,38.52
2022-08-07T13:52:22.598Z,38.52
2022-08-07T13:54:40.826Z,38.35
2022-08-07T13:57:38.234Z,37.51
2022-08-07T14:00:26.648Z,37.04
2022-08-07T14:03:00.943Z,37.24
2022-08-07T14:05:38.090Z,37.22
2022-08-07T14:08:26.807Z,37.50
2022-08-07T14:11:15.395Z,37.31
2022-08-07T14:13:56.200Z,37.11
2022-08-07T14:16:33.068Z,37.17
2022-08-07T14:19:17.650Z,36.71
2022-08-07T14:22:12.467Z,35.62
2022-08-07T14:24:53.534Z,34.98
2022-08-07T14:30:32.557Z,33.49
2022-08-07T14:33:06.685Z,32.23
2022-08-07T14:35:45.141Z,31.19
2022-08-07T14:38:31.250Z,31.17
2022-08-07T14:47:08.654Z,31.45
2022-08-07T14:49:57.513Z,31.58
2022-08-07T14:52:37.785Z,31.53
2022-08-07T14:55:17.775Z,30.76
2022-08-07T14:57:58.739Z,30.01
2022-08-07T15:00:36.304Z,29.51
2022-08-07T15:03:19.779Z,29.74
2022-08-07T15:06:04.085Z,29.77
2022-08-07T15:08:49.950Z,29.40
2022-08-07T15:11:53.806Z,28.83
2022-08-07T15:14:32.075Z,29.12
2022-08-07T15:17:18.196Z,29.62
2022-08-07T15:20:31.381Z,29.99
2022-08-07T15:23:00.305Z,30.16
2022-08-07T15:25:56.428Z,30.02
2022-08-07T15:28:41.076Z,29.92
2022-08-07T15:31:57.897Z,29.82
2022-08-07T15:34:18.971Z,29.82
2022-08-07T15:37:02.942Z,29.68
2022-08-07T15:42:52.374Z,29.26
2022-08-07T15:45:58.322Z,29.12
2022-08-07T15:48:36.774Z,28.96
2022-08-07T15:54:25.338Z,28.77
2022-08-07T15:57:02.442Z,28.73
2022-08-07T15:59:38.935Z,28.64
2022-08-07T16:02:15.833Z,28.56
2022-08-07T16:04:50.815Z,28.24
2022-08-07T16:08:29.181Z,27.66
2022-08-07T16:10:26.643Z,27.14
2022-08-07T16:13:57.971Z,26.81
2022-08-07T16:16:47.884Z,26.48
2022-08-07T16:19:59.466Z,26.22
2022-08-07T16:22:55.363Z,25.90
2022-08-07T16:25:53.025Z,25.64
2022-08-07T16:30:06.569Z,25.65
2022-08-07T16:31:57.213Z,25.80
2022-08-07T16:34:48.508Z,25.86
2022-08-07T16:38:05.229Z,25.87
2022-08-07T16:41:02.299Z,25.81
2022-08-07T16:44:04.102Z,25.70
2022-08-07T16:47:18.828Z,25.56
2022-08-07T16:50:20.440Z,25.27
2022-08-07T16:54:02.412Z,24.90
2022-08-07T16:56:37.549Z,24.77
2022-08-07T16:59:23.866Z,24.71
2022-08-07T17:02:03.665Z,24.58
2022-08-07T17:04:51.176Z,24.51
2022-08-07T17:07:55.430Z,24.59
2022-08-07T17:10:38.571Z,24.56
2022-08-07T17:14:17.976Z,24.60
2022-08-07T17:16:55.578Z,24.68
2022-08-07T17:20:02.380Z,24.68
2022-08-07T17:22:37.987Z,24.65
2022-08-07T17:25:20.285Z,24.60
2022-08-07T17:28:19.858Z,24.50
2022-08-07T17:31:16.311Z,24.36
2022-08-07T17:34:15.232Z,24.41
2022-08-07T17:37:00.008Z,24.57
2022-08-07T17:40:07.953Z,24.74
2022-08-07T17:42:59.123Z,24.85
2022-08-07T17:45:42.243Z,24.91
2022-08-07T17:48:31.257Z,24.87
2022-08-07T17:51:11.570Z,24.71
2022-08-07T17:54:06.566Z,24.61
2022-08-07T17:56:50.012Z,24.45
2022-08-07T17:59:35.447Z,24.31
2022-08-07T18:02:12.791Z,24.31
2022-08-07T18:05:20.759Z,24.39
2022-08-07T18:08:15.404Z,24.46
2022-08-07T18:12:07.026Z,24.51
2022-08-07T18:13:50.981Z,24.58
2022-08-07T18:16:34.246Z,24.53
2022-08-07T18:21:06.660Z,24.34
2022-08-07T18:22:33.913Z,24.07
2022-08-07T18:25:23.869Z,23.91
2022-08-07T18:28:21.534Z,23.80
2022-08-07T18:31:10.222Z,23.69
2022-08-07T18:34:35.748Z,23.62
2022-08-07T18:38:55.182Z,23.40
2022-08-07T18:40:42.453Z,23.18
2022-08-07T18:43:36.757Z,23.01
2022-08-07T18:46:27.328Z,22.89
2022-08-07T18:50:31.385Z,22.80
2022-08-07T18:52:34.631Z,22.74
2022-08-07T18:55:42.331Z,22.67
2022-08-07T18:58:22.365Z,22.63
2022-08-07T19:01:05.863Z,22.57
2022-08-07T19:03:52.119Z,22.49
2022-08-07T19:06:38.132Z,22.43
2022-08-07T19:09:55.595Z,22.36
2022-08-07T19:12:19.906Z,22.30
2022-08-07T19:16:02.837Z,22.31
2022-08-07T19:18:34.502Z,22.26
2022-08-07T19:21:43.803Z,22.19
2022-08-07T19:24:30.130Z,22.11
2022-08-07T19:28:29.287Z,22.05
2022-08-07T19:31:05.748Z,21.94
2022-08-07T19:33:00.254Z,21.83
2022-08-07T19:35:36.006Z,21.76
2022-08-07T19:38:16.722Z,21.70
2022-08-07T19:40:51.627Z,21.66
2022-08-07T19:43:43.990Z,21.62
2022-08-07T19:46:30.925Z,21.57
2022-08-07T19:49:07.240Z,21.54
2022-08-07T19:51:50.687Z,21.51
2022-08-07T19:54:31.419Z,21.47
2022-08-07T19:58:00.892Z,21.42
2022-08-07T20:00:08.941Z,21.36
2022-08-07T20:02:51.634Z,21.30
2022-08-07T20:05:29.190Z,21.22
2022-08-07T20:08:32.744Z,21.16
2022-08-07T20:11:09.989Z,21.09
2022-08-07T20:13:46.581Z,21.05
2022-08-07T20:16:35.547Z,21.01
2022-08-07T20:19:14.617Z,20.97
2022-08-07T20:21:48.449Z,20.92
2022-08-07T20:24:28.879Z,20.85
2022-08-07T20:27:07.629Z,20.79
2022-08-07T20:29:59.429Z,20.71
2022-08-07T20:32:41.198Z,20.65
2022-08-07T20:35:26.441Z,20.58
2022-08-07T20:38:00.858Z,20.54
2022-08-07T20:40:40.562Z,20.52
2022-08-07T20:43:19.797Z,20.49
2022-08-07T20:46:27.011Z,20.46
2022-08-07T20:49:53.902Z,20.47
2022-08-07T20:51:52.164Z,20.47
2022-08-07T20:54:32.191Z,20.45
2022-08-07T20:57:10.332Z,20.48
2022-08-07T21:00:07.667Z,20.49
2022-08-07T21:03:04.009Z,20.51
2022-08-07T21:05:55.876Z,20.52
2022-08-07T21:08:40.738Z,20.53
2022-08-07T21:11:21.931Z,20.53
2022-08-07T21:14:31.896Z,20.54
2022-08-07T21:18:03.121Z,20.55
2022-08-07T21:20:06.142Z,20.56
2022-08-07T21:22:51.236Z,20.55
2022-08-07T21:25:39.224Z,20.53
2022-08-07T21:28:19.016Z,20.52
2022-08-07T21:32:42.523Z,20.51
2022-08-07T21:34:46.215Z,20.48
2022-08-07T21:37:58.384Z,20.46
2022-08-07T21:40:39.384Z,20.47
2022-08-07T21:43:22.823Z,20.47
2022-08-07T21:46:10.300Z,20.45
2022-08-07T21:48:57.442Z,20.40
2022-08-07T21:51:51.104Z,20.32
2022-08-07T21:54:34.133Z,20.22
2022-08-07T21:57:31.299Z,20.14
2022-08-07T22:00:23.226Z,20.04
2022-08-07T22:03:09.831Z,19.95
2022-08-07T22:05:51.143Z,19.85
2022-08-07T22:08:24.949Z,19.77
2022-08-07T22:11:04.802Z,19.72
2022-08-07T22:13:52.899Z,19.68
2022-08-07T22:16:46.585Z,19.61
2022-08-07T22:19:29.887Z,19.55
2022-08-07T22:22:20.870Z,19.52
2022-08-07T22:25:13.605Z,19.49
2022-08-07T22:28:29.897Z,19.44
2022-08-07T22:30:58.752Z,19.41
2022-08-07T22:33:57.168Z,19.38
2022-08-07T22:36:46.303Z,19.32
2022-08-07T22:39:28.262Z,19.28
2022-08-07T22:42:19.822Z,19.22
2022-08-07T22:45:10.927Z,19.19
2022-08-07T22:48:54.886Z,19.13
2022-08-07T22:51:41.428Z,19.07
2022-08-07T22:54:35.044Z,19.00
2022-08-07T22:57:40.983Z,18.93
2022-08-07T23:00:21.515Z,18.86
2022-08-07T23:03:28.374Z,18.78
2022-08-07T23:06:27.146Z,18.71
2022-08-07T23:10:04.904Z,18.61
2022-08-07T23:12:38.787Z,18.51
2022-08-07T23:16:04.317Z,18.46
2022-08-07T23:18:26.482Z,18.38
2022-08-07T23:21:29.906Z,18.28
2022-08-07T23:24:38.690Z,18.21
2022-08-07T23:28:20.473Z,18.18
2022-08-07T23:30:45.769Z,18.15
2022-08-07T23:34:21.159Z,18.08
2022-08-07T23:37:20.193Z,18.02
2022-08-07T23:40:05.743Z,17.95
2022-08-07T23:42:53.313Z,17.89
2022-08-07T23:46:03.454Z,17.86
2022-08-07T23:49:16.834Z,17.80
2022-08-07T23:52:59.667Z,17.72
2022-08-07T23:54:57.055Z,17.65
2022-08-07T23:57:37.852Z,17.57
